Weather at Aviosuperficie Alicaorle

Public forecast

Using degrees Celsius for public forecast. Weather courtesy of forecast.io.

Closest aviation weather report (METAR) to Aviosuperficie Alicaorle

Closest report is Venice Marco Polo Airport, 20.5 nm (37.9 km) WSW. Retrieved 2020/11/25 01:20 UTC (36 minutes ago):

LIPZ 250120Z 02004KT CAVOK 04/M00 Q1024 NOSIG

Closest aviation forecast (TAF) to Aviosuperficie Alicaorle

Closest forecast is Venice Marco Polo Airport, 20.5 nm (37.9 km) WSW. Retrieved 2020-11-25 00:27 UTC (1 hour ago):

TAF TAF LIPZ 242323Z 2500/2606 VRB05KT 9999 SCT050 TEMPO 2502/2507 4000 BR